Terminal Aerodrome Forecast
Issued by NWS

Home | Current Version | Previous Version | Text Only | Print | Product List | Glossary On
Versions: 1 2 3 4 5 6 7 8 9 10 11 12 13 14 15 16 17 18 19
000
FTUS46 KMTR 232300
TAFSJC
TAF
KSJC 232339Z 2400/2424 29010G15KT P6SM SCT035
     FM240300 32012G18KT P6SM SCT020
     FM240600 31005KT P6SM OVC015
     FM241700 31012KT P6SM BKN022=

USA.gov is the U.S. government's official web portal to all federal, state and local government web resources and services.